createdAt,value
2023-04-05T00:01:20.338Z,52.33
2023-04-05T00:03:48.597Z,51.65
2023-04-05T00:06:17.931Z,52.80
2023-04-05T00:08:50.232Z,55.43
2023-04-05T00:11:21.701Z,48.92
2023-04-05T00:13:50.607Z,51.28
2023-04-05T00:16:20.231Z,51.10
2023-04-05T00:18:51.973Z,51.20
2023-04-05T00:21:23.559Z,50.55
2023-04-05T00:23:53.740Z,55.30
2023-04-05T00:26:22.539Z,54.78
2023-04-05T00:28:51.214Z,59.83
2023-04-05T00:31:24.076Z,53.17
2023-04-05T00:33:52.514Z,53.00
2023-04-05T00:36:25.744Z,50.67
2023-04-05T00:38:55.216Z,55.17
2023-04-05T00:41:23.356Z,54.15
2023-04-05T00:43:51.728Z,56.00
2023-04-05T00:46:21.073Z,56.70
2023-04-05T00:48:50.392Z,53.15
2023-04-05T00:51:48.215Z,60.95
2023-04-05T00:54:26.545Z,51.28
2023-04-05T01:04:31.132Z,54.45
2023-04-05T01:09:49.132Z,97.95
2023-04-05T01:12:23.490Z,192.23
2023-04-05T01:14:57.655Z,120.93
2023-04-05T01:17:37.081Z,156.85
2023-04-05T01:20:11.237Z,164.93
2023-04-05T01:22:56.972Z,91.90
2023-04-05T01:25:53.152Z,79.43
2023-04-05T01:29:14.313Z,59.42
2023-04-05T01:32:08.366Z,53.50
2023-04-05T01:39:00.003Z,199.05
2023-04-05T01:42:10.367Z,144.73
2023-04-05T01:44:51.292Z,129.07
2023-04-05T01:47:19.484Z,121.15
2023-04-05T01:49:48.318Z,136.90
2023-04-05T01:52:23.062Z,107.50
2023-04-05T01:55:20.665Z,64.20
2023-04-05T01:58:04.369Z,55.75
2023-04-05T02:00:40.216Z,56.05
2023-04-05T02:03:39.473Z,54.85
2023-04-05T02:06:33.967Z,125.25
2023-04-05T02:09:07.474Z,131.55
2023-04-05T02:11:36.183Z,159.60
2023-04-05T02:14:04.503Z,93.07
2023-04-05T02:16:35.975Z,101.40
2023-04-05T02:19:04.590Z,100.88
2023-04-05T02:21:35.740Z,55.58
2023-04-05T02:24:03.992Z,55.13
2023-04-05T02:26:53.007Z,69.13
2023-04-05T02:29:27.732Z,53.13
2023-04-05T02:36:01.449Z,53.17
2023-04-05T02:38:29.763Z,66.13
2023-04-05T02:40:59.264Z,200.23
2023-04-05T02:43:38.228Z,122.25
2023-04-05T02:46:12.857Z,106.15
2023-04-05T02:48:58.384Z,154.13
2023-04-05T02:51:27.717Z,70.43
2023-04-05T02:53:56.219Z,54.10
2023-04-05T02:56:25.247Z,57.08
2023-04-05T02:58:59.025Z,49.72
2023-04-05T03:01:28.305Z,55.42
2023-04-05T03:04:17.703Z,52.50
2023-04-05T03:06:54.770Z,126.22
2023-04-05T03:09:25.192Z,97.65
2023-04-05T03:11:53.845Z,88.95
2023-04-05T03:14:24.983Z,77.10
2023-04-05T03:16:53.060Z,64.63
2023-04-05T03:19:22.946Z,51.92
2023-04-05T03:24:20.132Z,46.17
2023-04-05T03:26:50.121Z,46.40
2023-04-05T03:29:18.832Z,53.03
2023-04-05T03:31:56.746Z,52.58
2023-04-05T03:37:11.314Z,73.28
2023-04-05T03:39:41.407Z,127.20
2023-04-05T03:42:12.375Z,82.93
2023-04-05T03:44:43.901Z,73.68
2023-04-05T03:47:13.522Z,77.22
2023-04-05T03:49:42.063Z,48.08
2023-04-05T03:55:03.051Z,46.72
2023-04-05T03:57:36.618Z,45.25
2023-04-05T04:00:25.257Z,41.67
2023-04-05T04:02:53.819Z,59.33
2023-04-05T04:05:22.321Z,65.85
2023-04-05T04:07:50.838Z,89.32
2023-04-05T04:10:19.069Z,114.13
2023-04-05T04:12:47.639Z,122.00
2023-04-05T04:15:18.972Z,116.80
2023-04-05T04:17:49.776Z,81.22
2023-04-05T04:20:19.549Z,67.10
2023-04-05T04:25:19.564Z,46.60
2023-04-05T04:27:48.315Z,45.53
2023-04-05T04:30:16.870Z,39.45
2023-04-05T04:32:58.648Z,42.10
2023-04-05T04:35:33.816Z,43.88
2023-04-05T04:38:21.324Z,125.25
2023-04-05T04:40:57.080Z,40.08
2023-04-05T04:46:23.739Z,89.68
2023-04-05T04:49:04.013Z,61.40
2023-04-05T04:54:52.603Z,30.80
2023-04-05T04:57:34.229Z,38.30
2023-04-05T05:00:04.801Z,32.20
2023-04-05T05:02:41.012Z,32.70
2023-04-05T05:05:10.052Z,81.70
2023-04-05T05:07:47.865Z,80.63
2023-04-05T05:10:19.257Z,121.07
2023-04-05T05:12:50.485Z,130.88
2023-04-05T05:15:19.728Z,86.65
2023-04-05T05:17:53.300Z,57.88
2023-04-05T05:20:23.199Z,42.85
2023-04-05T05:22:51.595Z,36.15
2023-04-05T05:25:22.839Z,34.97
2023-04-05T05:27:51.424Z,29.92
2023-04-05T05:30:23.950Z,38.05
2023-04-05T05:32:56.632Z,35.38
2023-04-05T05:35:25.255Z,37.10
2023-04-05T05:37:58.764Z,43.00
2023-04-05T05:40:35.837Z,39.15
2023-04-05T05:43:04.585Z,102.55
2023-04-05T05:45:33.060Z,123.13
2023-04-05T05:48:08.937Z,139.52
2023-04-05T05:50:37.128Z,39.65
2023-04-05T05:53:25.594Z,31.75
2023-04-05T05:55:53.790Z,34.00
2023-04-05T05:58:22.046Z,24.75
2023-04-05T06:00:59.463Z,22.27
2023-04-05T06:06:18.419Z,80.85
2023-04-05T06:09:04.884Z,107.63
2023-04-05T06:12:31.036Z,81.47
2023-04-05T06:14:59.520Z,105.85
2023-04-05T06:17:27.733Z,75.10
2023-04-05T06:20:05.347Z,38.55
2023-04-05T06:25:27.084Z,12.63
2023-04-05T06:27:55.364Z,13.55
2023-04-05T06:30:24.095Z,16.23
2023-04-05T06:32:55.032Z,17.77
2023-04-05T06:35:26.089Z,16.95
2023-04-05T06:37:54.772Z,52.17
2023-04-05T06:40:25.462Z,75.72
2023-04-05T06:42:56.546Z,36.17
2023-04-05T06:45:24.907Z,65.78
2023-04-05T06:47:53.141Z,68.22
2023-04-05T06:50:21.531Z,32.40
2023-04-05T06:52:49.698Z,19.88
2023-04-05T06:55:21.339Z,20.00
2023-04-05T06:57:55.344Z,20.88
2023-04-05T07:00:31.971Z,26.48
2023-04-05T07:03:00.785Z,23.75
2023-04-05T07:05:32.139Z,85.22
2023-04-05T07:08:00.354Z,116.35
2023-04-05T07:10:28.966Z,99.45
2023-04-05T07:13:01.068Z,54.95
2023-04-05T07:15:32.048Z,77.47
2023-04-05T07:18:09.547Z,97.55
2023-04-05T07:20:43.625Z,57.55
2023-04-05T07:23:12.522Z,25.17
2023-04-05T07:25:44.338Z,25.90
2023-04-05T07:28:15.848Z,25.33
2023-04-05T07:30:44.768Z,23.40
2023-04-05T07:33:13.209Z,29.87
2023-04-05T07:36:17.186Z,53.65
2023-04-05T07:38:38.293Z,101.72
2023-04-05T07:41:08.335Z,86.47
2023-04-05T07:43:36.452Z,74.05
2023-04-05T07:46:09.227Z,51.90
2023-04-05T07:48:37.541Z,62.05
2023-04-05T07:51:10.840Z,26.05
2023-04-05T07:53:39.811Z,26.98
2023-04-05T07:56:11.187Z,21.30
2023-04-05T07:58:42.749Z,21.60
2023-04-05T08:01:12.034Z,26.38
2023-04-05T08:03:41.116Z,23.25
2023-04-05T08:06:14.255Z,158.38
2023-04-05T08:08:43.050Z,120.38
2023-04-05T08:11:11.419Z,82.07
2023-04-05T08:13:42.062Z,75.40
2023-04-05T08:16:11.937Z,87.63
2023-04-05T08:18:40.512Z,92.22
2023-04-05T08:21:08.878Z,40.05
2023-04-05T08:23:37.165Z,27.33
2023-04-05T08:26:05.893Z,20.10
2023-04-05T08:28:35.628Z,22.43
2023-04-05T08:31:03.770Z,19.85
2023-04-05T08:33:34.449Z,24.77
2023-04-05T08:36:15.925Z,82.78
2023-04-05T08:38:47.119Z,66.50
2023-04-05T08:41:26.846Z,67.07
2023-04-05T08:44:06.113Z,116.45
2023-04-05T08:46:35.504Z,78.68
2023-04-05T08:49:10.455Z,92.38
2023-04-05T08:51:42.238Z,36.85
2023-04-05T08:54:11.492Z,27.98
2023-04-05T08:56:42.106Z,22.48
2023-04-05T08:59:16.482Z,20.65
2023-04-05T09:01:51.995Z,26.98
2023-04-05T09:08:07.725Z,64.32
2023-04-05T09:10:36.066Z,78.30
2023-04-05T09:13:05.903Z,82.07
2023-04-05T09:15:38.298Z,72.35
2023-04-05T09:18:19.095Z,90.63
2023-04-05T09:20:52.573Z,34.50
2023-04-05T09:27:33.040Z,21.65
2023-04-05T09:30:02.931Z,25.63
2023-04-05T09:32:31.408Z,21.83
2023-04-05T09:35:05.171Z,68.65
2023-04-05T09:37:36.632Z,77.93
2023-04-05T09:40:07.268Z,91.65
2023-04-05T09:42:46.425Z,124.28
2023-04-05T09:46:56.947Z,67.30
2023-04-05T09:48:55.767Z,85.40
2023-04-05T09:51:52.728Z,60.40
2023-04-05T09:54:50.940Z,24.65
2023-04-05T09:57:46.829Z,20.33
2023-04-05T10:00:22.613Z,21.55
2023-04-05T10:02:56.598Z,18.83
2023-04-05T10:05:33.154Z,19.95
2023-04-05T10:08:02.434Z,19.55
2023-04-05T10:10:32.610Z,22.77
2023-04-05T10:13:01.380Z,18.10
2023-04-05T10:15:31.967Z,20.67
2023-04-05T10:18:14.437Z,19.45
2023-04-05T10:20:47.784Z,18.52
2023-04-05T10:23:29.013Z,18.67
2023-04-05T10:26:00.680Z,21.40
2023-04-05T10:28:41.747Z,19.23
2023-04-05T10:31:30.570Z,18.88
2023-04-05T10:34:06.509Z,19.33
2023-04-05T10:36:49.942Z,25.65
2023-04-05T10:39:24.295Z,22.73
2023-04-05T10:42:07.173Z,20.63
2023-04-05T10:44:38.050Z,25.95
2023-04-05T10:47:07.591Z,20.40
2023-04-05T10:49:42.699Z,22.55
2023-04-05T10:52:12.005Z,25.60
2023-04-05T10:54:40.851Z,20.15
2023-04-05T10:57:12.764Z,21.67
2023-04-05T10:59:46.074Z,21.55
2023-04-05T11:02:16.056Z,21.17
2023-04-05T11:04:44.559Z,19.23
2023-04-05T11:07:13.302Z,22.23
2023-04-05T11:10:15.166Z,20.83
2023-04-05T11:12:56.611Z,22.48
2023-04-05T11:15:33.559Z,20.52
2023-04-05T11:18:23.205Z,22.27
2023-04-05T11:23:27.337Z,25.45
2023-04-05T11:26:06.258Z,24.70
2023-04-05T11:28:43.773Z,25.25
2023-04-05T11:31:32.751Z,30.48
2023-04-05T11:34:10.998Z,22.27
2023-04-05T11:36:46.306Z,25.05
2023-04-05T11:39:23.071Z,30.38
2023-04-05T11:42:01.752Z,24.10
2023-04-05T11:44:52.983Z,27.55
2023-04-05T11:47:22.864Z,26.02
2023-04-05T11:49:52.028Z,23.65
2023-04-05T11:52:22.218Z,30.42
2023-04-05T11:54:50.380Z,27.05
2023-04-05T11:57:24.211Z,27.88
2023-04-05T11:59:53.586Z,29.90
2023-04-05T12:02:22.615Z,27.50
2023-04-05T12:04:58.773Z,31.65
2023-04-05T12:07:37.149Z,29.95
2023-04-05T12:10:14.174Z,25.50
2023-04-05T12:12:44.083Z,32.40
2023-04-05T12:15:19.349Z,26.15
2023-04-05T12:17:54.849Z,28.05
2023-04-05T12:20:26.972Z,32.53
2023-04-05T12:22:56.956Z,27.00
2023-04-05T12:25:25.911Z,33.28
2023-04-05T12:27:54.132Z,30.00
2023-04-05T12:30:24.022Z,34.97
2023-04-05T12:32:56.677Z,31.60
2023-04-05T12:35:33.835Z,29.35
2023-04-05T12:38:06.410Z,30.10
2023-04-05T12:40:39.097Z,39.75
2023-04-05T12:43:09.036Z,30.38
2023-04-05T12:45:42.680Z,35.05
2023-04-05T12:48:15.475Z,32.75
2023-04-05T12:50:52.168Z,37.45
2023-04-05T12:53:28.892Z,31.55
2023-04-05T12:56:02.301Z,32.42
2023-04-05T12:58:38.000Z,33.20
2023-04-05T13:01:07.367Z,33.60
2023-04-05T13:03:35.621Z,35.45
2023-04-05T13:06:03.871Z,47.50
2023-04-05T13:08:32.072Z,31.95
2023-04-05T13:11:01.696Z,34.40
2023-04-05T13:13:29.837Z,35.30
2023-04-05T13:15:57.998Z,34.72
2023-04-05T13:18:26.172Z,37.63
2023-04-05T13:20:54.373Z,36.22
2023-04-05T13:23:22.440Z,41.60
2023-04-05T13:25:50.541Z,42.05
2023-04-05T13:28:19.427Z,52.65
2023-04-05T13:30:48.664Z,47.53
2023-04-05T13:33:20.392Z,46.20
2023-04-05T13:35:49.030Z,50.97
2023-04-05T13:38:17.086Z,48.05
2023-04-05T13:40:45.508Z,55.65
2023-04-05T13:43:14.513Z,54.30
2023-04-05T13:45:42.954Z,53.80
2023-04-05T13:48:11.370Z,51.85
2023-04-05T13:50:40.163Z,49.88
2023-04-05T13:53:08.888Z,55.45
2023-04-05T13:55:38.549Z,50.72
2023-04-05T13:58:06.759Z,49.08
2023-04-05T14:00:34.903Z,46.22
2023-04-05T14:03:03.058Z,48.35
2023-04-05T14:05:31.363Z,49.60
2023-04-05T14:08:00.645Z,46.42
2023-04-05T14:10:28.893Z,44.65
2023-04-05T14:12:57.072Z,46.17
2023-04-05T14:15:25.288Z,46.03
2023-04-05T14:17:53.487Z,44.20
2023-04-05T14:20:21.739Z,45.53
2023-04-05T14:22:49.879Z,44.30
2023-04-05T14:25:18.065Z,49.28
2023-04-05T14:27:46.371Z,44.80
2023-04-05T14:30:14.908Z,47.45
2023-04-05T14:32:44.130Z,51.22
2023-04-05T14:35:12.251Z,47.08
2023-04-05T14:37:40.598Z,52.28
2023-04-05T14:40:09.977Z,48.40
2023-04-05T14:42:48.423Z,49.05
2023-04-05T14:45:19.294Z,47.42
2023-04-05T14:47:47.410Z,49.35
2023-04-05T14:50:16.478Z,50.60
2023-04-05T14:52:46.175Z,49.83
2023-04-05T14:55:15.052Z,47.25
2023-04-05T14:57:44.340Z,56.63
2023-04-05T15:00:14.602Z,49.40
2023-04-05T15:02:43.192Z,52.42
2023-04-05T15:05:11.527Z,50.08
2023-04-05T15:07:39.940Z,56.60
2023-04-05T15:10:08.414Z,51.00
2023-04-05T15:12:36.825Z,52.80
2023-04-05T15:15:05.263Z,52.50
2023-04-05T15:17:33.861Z,51.88
2023-04-05T15:20:02.040Z,47.00
2023-04-05T15:22:30.376Z,43.80
2023-04-05T15:25:00.808Z,57.17
2023-04-05T15:27:28.864Z,49.42
2023-04-05T15:29:56.980Z,45.08
2023-04-05T15:32:25.978Z,48.67
2023-04-05T15:34:54.152Z,41.83
2023-04-05T15:37:22.237Z,45.03
2023-04-05T15:39:50.348Z,39.13
2023-04-05T15:42:19.845Z,40.67
2023-04-05T15:44:48.547Z,42.30
2023-04-05T15:47:16.778Z,42.92
2023-04-05T15:49:45.043Z,39.67
2023-04-05T15:52:13.245Z,38.85
2023-04-05T15:54:41.373Z,42.15
2023-04-05T15:57:09.512Z,42.92
2023-04-05T15:59:38.075Z,36.72
2023-04-05T16:02:06.451Z,37.92
2023-04-05T16:04:34.589Z,36.35
2023-04-05T16:07:02.713Z,34.40
2023-04-05T16:09:30.795Z,35.53
2023-04-05T16:11:59.872Z,32.70
2023-04-05T16:14:28.080Z,37.75
2023-04-05T16:16:56.344Z,37.67
2023-04-05T16:19:24.836Z,37.55
2023-04-05T16:21:53.208Z,36.00
2023-04-05T16:24:21.422Z,36.40
2023-04-05T16:26:49.654Z,37.65
2023-04-05T16:29:18.037Z,34.92
2023-04-05T16:31:47.812Z,34.28
2023-04-05T16:34:16.345Z,31.25
2023-04-05T16:36:44.502Z,36.38
2023-04-05T16:39:13.354Z,33.05
2023-04-05T16:41:41.425Z,36.00
2023-04-05T16:44:09.700Z,31.92
2023-04-05T16:46:38.618Z,31.70
2023-04-05T16:49:06.773Z,34.70
2023-04-05T16:51:36.222Z,35.47
2023-04-05T16:54:05.220Z,37.55
2023-04-05T16:56:34.133Z,32.40
2023-04-05T16:59:04.370Z,34.40
2023-04-05T17:01:34.115Z,32.65
2023-04-05T17:04:03.068Z,35.28
2023-04-05T17:06:32.832Z,40.33
2023-04-05T17:09:01.890Z,32.83
2023-04-05T17:11:30.334Z,36.38
2023-04-05T17:13:59.702Z,35.05
2023-04-05T17:16:28.141Z,34.80
2023-04-05T17:18:56.933Z,36.15
2023-04-05T17:21:26.069Z,35.45
2023-04-05T17:23:54.069Z,36.83
2023-04-05T17:26:24.938Z,34.22
2023-04-05T17:28:53.164Z,35.13
2023-04-05T17:31:21.220Z,35.22
2023-04-05T17:33:49.317Z,37.70
2023-04-05T17:36:18.071Z,32.65
2023-04-05T17:38:46.377Z,36.05
2023-04-05T17:41:14.398Z,33.22
2023-04-05T17:43:42.454Z,41.53
2023-04-05T17:46:14.285Z,39.45
2023-04-05T17:48:43.860Z,39.17
2023-04-05T17:51:11.944Z,37.70
2023-04-05T17:53:39.947Z,36.80
2023-04-05T17:56:08.569Z,35.17
2023-04-05T17:58:37.414Z,40.53
2023-04-05T18:01:05.430Z,36.45
2023-04-05T18:03:33.541Z,40.38
2023-04-05T18:06:02.375Z,37.40
2023-04-05T18:08:30.660Z,38.80
2023-04-05T18:10:59.684Z,40.08
2023-04-05T18:13:28.946Z,34.37
2023-04-05T18:15:59.141Z,36.75
2023-04-05T18:18:27.767Z,40.00
2023-04-05T18:20:56.987Z,39.65
2023-04-05T18:23:28.775Z,47.33
2023-04-05T18:25:57.271Z,37.85
2023-04-05T18:28:25.324Z,40.67
2023-04-05T18:30:53.375Z,38.63
2023-04-05T18:33:22.816Z,40.58
2023-04-05T18:35:51.651Z,38.60
2023-04-05T18:38:20.570Z,42.28
2023-04-05T18:40:49.054Z,43.08
2023-04-05T18:43:18.001Z,41.22
2023-04-05T18:45:46.141Z,38.23
2023-04-05T18:48:14.244Z,40.53
2023-04-05T18:50:42.435Z,40.10
2023-04-05T18:53:10.845Z,38.25
2023-04-05T18:55:38.840Z,42.95
2023-04-05T18:58:06.930Z,36.90
2023-04-05T19:00:35.540Z,41.50
2023-04-05T19:03:03.562Z,40.97
2023-04-05T19:05:31.733Z,39.88
2023-04-05T19:08:00.083Z,41.08
2023-04-05T19:10:28.211Z,37.60
2023-04-05T19:12:56.355Z,41.90
2023-04-05T19:15:24.420Z,40.15
2023-04-05T19:17:52.441Z,40.42
2023-04-05T19:20:20.562Z,48.03
2023-04-05T19:22:48.564Z,40.25
2023-04-05T19:25:16.604Z,40.72
2023-04-05T19:27:45.509Z,41.10
2023-04-05T19:30:13.631Z,37.63
2023-04-05T19:32:42.537Z,38.45
2023-04-05T19:35:11.113Z,52.88
2023-04-05T19:37:39.310Z,37.75
2023-04-05T19:40:08.151Z,38.25
2023-04-05T19:42:36.351Z,43.13
2023-04-05T19:45:08.826Z,41.38
2023-04-05T19:47:38.736Z,42.45
2023-04-05T19:52:49.770Z,41.17
2023-04-05T19:55:28.681Z,40.65
2023-04-05T19:57:58.818Z,37.70
2023-04-05T20:00:55.631Z,37.45
2023-04-05T20:03:32.277Z,41.42
2023-04-05T20:06:03.367Z,49.15
2023-04-05T20:08:33.910Z,44.58
2023-04-05T20:11:05.154Z,43.67
2023-04-05T20:13:37.632Z,42.13
2023-04-05T20:16:08.356Z,47.05
2023-04-05T20:18:36.566Z,44.95
2023-04-05T20:21:05.744Z,46.58
2023-04-05T20:23:34.877Z,45.53
2023-04-05T20:26:03.267Z,44.47
2023-04-05T20:28:53.675Z,37.13
2023-04-05T20:31:26.701Z,45.83
2023-04-05T20:33:57.871Z,42.38
2023-04-05T20:36:32.296Z,42.08
2023-04-05T20:39:02.041Z,41.65
2023-04-05T20:41:30.445Z,41.33
2023-04-05T20:43:59.422Z,38.20
2023-04-05T20:46:28.642Z,40.45
2023-04-05T20:48:58.970Z,45.35
2023-04-05T20:51:27.198Z,41.15
2023-04-05T20:53:55.723Z,38.97
2023-04-05T20:56:24.530Z,47.08
2023-04-05T20:58:55.462Z,36.88
2023-04-05T21:01:23.746Z,40.63
2023-04-05T21:03:53.614Z,36.75
2023-04-05T21:08:49.673Z,42.95
2023-04-05T21:11:17.694Z,41.25
2023-04-05T21:13:45.842Z,37.50
2023-04-05T21:16:13.939Z,39.50
2023-04-05T21:18:42.045Z,43.70
2023-04-05T21:21:10.367Z,43.25
2023-04-05T21:23:38.387Z,39.75
2023-04-05T21:26:06.569Z,45.78
2023-04-05T21:28:34.864Z,44.00
2023-04-05T21:31:03.734Z,39.28
2023-04-05T21:33:31.777Z,45.58
2023-04-05T21:36:00.811Z,38.17
2023-04-05T21:38:28.877Z,42.08
2023-04-05T21:40:56.914Z,45.35
2023-04-05T21:43:25.050Z,41.72
2023-04-05T21:45:53.287Z,42.55
2023-04-05T21:48:21.535Z,39.47
2023-04-05T21:50:49.567Z,37.05
2023-04-05T21:53:17.762Z,42.28
2023-04-05T21:55:45.921Z,39.00
2023-04-05T21:58:14.842Z,39.17
2023-04-05T22:00:42.943Z,38.88
2023-04-05T22:03:12.263Z,37.35
2023-04-05T22:05:41.153Z,38.63
2023-04-05T22:08:09.700Z,42.78
2023-04-05T22:10:38.783Z,46.75
2023-04-05T22:13:07.209Z,41.05
2023-04-05T22:15:35.285Z,37.45
2023-04-05T22:18:04.341Z,36.70
2023-04-05T22:20:33.334Z,38.55
2023-04-05T22:23:01.425Z,36.63
2023-04-05T22:25:30.322Z,42.97
2023-04-05T22:28:01.547Z,39.28
2023-04-05T22:30:40.901Z,35.25
2023-04-05T22:33:13.220Z,36.20
2023-04-05T22:38:10.735Z,41.70
2023-04-05T22:40:38.812Z,38.95
2023-04-05T22:43:07.171Z,47.83
2023-04-05T22:45:35.192Z,39.03
2023-04-05T22:48:03.668Z,40.95
2023-04-05T22:50:33.240Z,48.80
2023-04-05T22:53:01.325Z,40.67
2023-04-05T22:55:29.539Z,38.15
2023-04-05T22:57:58.375Z,48.13
2023-04-05T23:00:26.540Z,52.95
2023-04-05T23:02:55.520Z,46.58
2023-04-05T23:05:24.663Z,50.88
2023-04-05T23:07:52.822Z,51.28
2023-04-05T23:10:21.152Z,43.75
2023-04-05T23:12:49.563Z,44.85
2023-04-05T23:15:17.735Z,44.97
2023-04-05T23:17:46.675Z,45.47
2023-04-05T23:20:15.042Z,44.50
2023-04-05T23:22:43.440Z,48.33
2023-04-05T23:25:11.515Z,41.83
2023-04-05T23:27:40.385Z,46.08
2023-04-05T23:30:08.932Z,44.97
2023-04-05T23:32:36.983Z,76.60
2023-04-05T23:35:05.644Z,75.47
2023-04-05T23:37:35.000Z,44.95
2023-04-05T23:40:03.715Z,46.20
2023-04-05T23:42:31.863Z,51.97
2023-04-05T23:45:02.585Z,44.92
2023-04-05T23:47:31.571Z,43.72
2023-04-05T23:49:59.622Z,45.78
2023-04-05T23:52:27.691Z,45.33
2023-04-05T23:54:56.464Z,46.83
2023-04-05T23:57:24.782Z,43.75
2023-04-05T23:59:52.810Z,40.15
